createdAt,value
2022-09-28T00:00:38.066Z,10.25
2022-09-28T00:05:39.617Z,9.35
2022-09-28T00:10:43.229Z,12.40
2022-09-28T00:15:44.790Z,10.68
2022-09-28T00:20:46.361Z,8.82
2022-09-28T00:25:47.920Z,10.20
2022-09-28T00:30:55.285Z,12.70
2022-09-28T00:35:58.468Z,9.77
2022-09-28T00:41:00.569Z,8.90
2022-09-28T00:46:06.466Z,11.68
2022-09-28T00:51:12.319Z,8.45
2022-09-28T00:56:19.082Z,8.23
2022-09-28T01:01:21.451Z,5.80
2022-09-28T01:06:27.443Z,5.70
2022-09-28T01:11:31.878Z,5.13
2022-09-28T01:16:54.049Z,3.38
2022-09-28T01:22:46.361Z,3.67
2022-09-28T01:28:12.938Z,2.25
2022-09-28T01:33:22.264Z,1.60
2022-09-28T01:38:30.276Z,1.40
2022-09-28T01:48:42.064Z,2.22
2022-09-28T01:53:52.824Z,3.17
2022-09-28T01:59:04.430Z,2.13
2022-09-28T02:04:32.502Z,2.25
2022-09-28T02:09:41.760Z,3.47
2022-09-28T02:14:46.941Z,4.30
2022-09-28T02:19:48.961Z,4.97
2022-09-28T02:25:18.292Z,4.72
2022-09-28T02:30:19.916Z,3.45
2022-09-28T02:35:22.152Z,4.80
2022-09-28T02:40:29.245Z,7.15
2022-09-28T02:45:42.469Z,3.38
2022-09-28T02:51:12.628Z,3.42
2022-09-28T02:56:35.532Z,4.60
2022-09-28T03:02:08.568Z,4.28
2022-09-28T03:07:25.441Z,2.90
2022-09-28T03:12:29.809Z,4.10
2022-09-28T03:17:31.650Z,3.58
2022-09-28T03:22:33.356Z,4.18
2022-09-28T03:27:35.071Z,5.75
2022-09-28T03:32:36.991Z,2.55
2022-09-28T03:37:39.085Z,3.97
2022-09-28T03:42:41.003Z,2.90
2022-09-28T03:47:46.899Z,2.60
2022-09-28T03:52:48.505Z,2.50
2022-09-28T03:57:55.669Z,4.43
2022-09-28T04:02:57.316Z,3.78
2022-09-28T04:08:00.492Z,3.88
2022-09-28T04:13:02.608Z,4.65
2022-09-28T04:18:09.247Z,3.47
2022-09-28T04:23:30.068Z,5.70
2022-09-28T04:28:51.374Z,5.43
2022-09-28T04:33:53.728Z,3.97
2022-09-28T04:38:55.820Z,4.13
2022-09-28T04:43:59.658Z,5.10
2022-09-28T04:49:02.469Z,4.65
2022-09-28T04:54:18.916Z,3.38
2022-09-28T04:59:20.755Z,3.75
2022-09-28T05:04:26.030Z,4.22
2022-09-28T05:09:46.533Z,4.15
2022-09-28T05:14:49.961Z,6.57
2022-09-28T05:19:51.733Z,6.78
2022-09-28T05:24:54.867Z,5.57
2022-09-28T05:29:56.527Z,5.50
2022-09-28T05:35:17.437Z,7.20
2022-09-28T05:40:21.841Z,7.43
2022-09-28T05:45:23.509Z,7.93
2022-09-28T05:50:25.416Z,6.93
2022-09-28T05:55:27.827Z,5.82
2022-09-28T06:00:31.738Z,7.00
2022-09-28T06:05:37.285Z,8.82
2022-09-28T06:10:39.773Z,11.70
2022-09-28T06:15:43.583Z,9.88
2022-09-28T06:20:47.972Z,9.98
2022-09-28T06:25:51.146Z,10.02
2022-09-28T06:30:53.137Z,9.40
2022-09-28T06:35:54.977Z,9.60
2022-09-28T06:40:59.987Z,10.88
2022-09-28T06:46:02.389Z,9.75
2022-09-28T06:51:12.877Z,7.78
2022-09-28T06:56:32.682Z,9.90
2022-09-28T07:01:34.801Z,7.60
2022-09-28T07:06:47.933Z,7.80
2022-09-28T07:12:10.662Z,7.57
2022-09-28T07:17:31.695Z,7.05
2022-09-28T07:22:43.090Z,6.97
2022-09-28T07:27:48.246Z,6.68
2022-09-28T07:33:07.058Z,6.80
2022-09-28T07:38:28.021Z,6.53
2022-09-28T07:43:31.550Z,7.68
2022-09-28T07:48:36.688Z,7.18
2022-09-28T07:53:44.577Z,5.32
2022-09-28T07:59:17.408Z,7.85
2022-09-28T08:04:37.903Z,4.18
2022-09-28T08:09:40.149Z,2.78
2022-09-28T08:15:11.741Z,3.03
2022-09-28T08:20:51.689Z,3.33
2022-09-28T08:25:54.318Z,3.42
2022-09-28T08:30:59.918Z,2.75
2022-09-28T08:36:21.026Z,4.72
2022-09-28T08:41:49.361Z,3.08
2022-09-28T08:47:41.727Z,3.05
2022-09-28T08:53:16.640Z,3.10
2022-09-28T08:58:37.367Z,1.90
2022-09-28T09:03:41.847Z,2.15
2022-09-28T09:09:22.843Z,2.40
2022-09-28T09:14:44.330Z,2.88
2022-09-28T09:19:54.479Z,2.22
2022-09-28T09:25:07.905Z,2.38
2022-09-28T09:30:12.744Z,1.23
2022-09-28T09:35:30.585Z,2.08
2022-09-28T09:40:42.803Z,1.13
2022-09-28T09:46:15.186Z,0.70
2022-09-28T09:51:41.088Z,2.47
2022-09-28T09:56:50.568Z,1.35
2022-09-28T10:02:06.048Z,1.70
2022-09-28T10:07:24.601Z,1.23
2022-09-28T10:12:27.534Z,0.60
2022-09-28T10:17:30.540Z,1.45
2022-09-28T10:22:52.845Z,0.98
2022-09-28T10:27:56.160Z,0.70
2022-09-28T10:32:59.211Z,1.60
2022-09-28T10:43:36.582Z,6.32
2022-09-28T10:48:49.178Z,1.65
2022-09-28T10:54:00.377Z,2.13
2022-09-28T10:59:30.186Z,3.35
2022-09-28T11:04:56.278Z,2.35
2022-09-28T11:09:59.303Z,1.20
2022-09-28T11:15:06.893Z,1.25
2022-09-28T11:20:27.425Z,1.15
2022-09-28T11:25:31.236Z,1.92
2022-09-28T11:30:38.363Z,1.52
2022-09-28T11:36:12.844Z,1.83
2022-09-28T11:41:18.097Z,2.22
2022-09-28T11:46:27.092Z,2.00
2022-09-28T11:51:32.738Z,1.33
2022-09-28T11:56:38.667Z,1.10
2022-09-28T12:01:44.612Z,1.38
2022-09-28T12:07:03.560Z,0.88
2022-09-28T12:12:17.050Z,1.58
2022-09-28T12:17:29.340Z,1.77
2022-09-28T12:22:41.246Z,1.77
2022-09-28T12:27:52.837Z,1.52
2022-09-28T12:33:09.170Z,1.83
2022-09-28T12:38:24.443Z,2.97
2022-09-28T12:43:30.034Z,1.65
2022-09-28T12:49:36.625Z,1.58
2022-09-28T12:54:21.831Z,2.58
2022-09-28T12:59:35.338Z,2.78
2022-09-28T13:04:55.604Z,2.45
2022-09-28T13:10:14.642Z,3.20
2022-09-28T13:15:21.664Z,3.58
2022-09-28T13:20:33.119Z,6.97
2022-09-28T13:25:40.824Z,17.13
2022-09-28T13:30:47.360Z,4.32
2022-09-28T13:35:52.967Z,2.90
2022-09-28T13:41:09.193Z,4.30
2022-09-28T13:46:24.348Z,2.53
2022-09-28T13:51:48.748Z,4.60
2022-09-28T13:57:00.698Z,3.88
2022-09-28T14:02:20.163Z,2.55
2022-09-28T14:07:37.602Z,2.35
2022-09-28T14:12:43.036Z,4.45
2022-09-28T14:17:49.967Z,3.58
2022-09-28T14:23:00.778Z,2.00
2022-09-28T14:28:24.446Z,2.95
2022-09-28T14:33:33.751Z,2.20
2022-09-28T14:39:07.150Z,1.58
2022-09-28T14:44:13.435Z,1.83
2022-09-28T14:49:23.203Z,2.95
2022-09-28T14:54:31.270Z,1.83
2022-09-28T14:59:37.784Z,2.00
2022-09-28T15:04:52.440Z,2.63
2022-09-28T15:09:58.791Z,3.28
2022-09-28T15:15:11.715Z,2.45
2022-09-28T15:20:30.765Z,6.88
2022-09-28T15:25:36.576Z,4.00
2022-09-28T15:30:41.927Z,5.10
2022-09-28T15:35:49.283Z,11.57
2022-09-28T15:40:54.962Z,4.65
2022-09-28T15:46:10.444Z,3.60
2022-09-28T15:51:15.947Z,23.65
2022-09-28T15:56:21.287Z,4.47
2022-09-28T16:01:35.834Z,9.20
2022-09-28T16:06:41.249Z,3.97
2022-09-28T16:11:47.055Z,8.05
2022-09-28T16:16:55.198Z,7.13
2022-09-28T16:22:01.537Z,9.63
2022-09-28T16:27:36.232Z,7.45
2022-09-28T16:32:43.503Z,7.53
2022-09-28T16:37:49.175Z,6.82
2022-09-28T16:42:54.786Z,5.65
2022-09-28T16:48:01.559Z,4.43
2022-09-28T16:53:31.473Z,10.50
2022-09-28T16:58:38.973Z,29.05
2022-09-28T17:08:52.108Z,14.57
2022-09-28T17:13:58.747Z,10.98
2022-09-28T17:19:03.863Z,8.63
2022-09-28T17:24:09.261Z,7.82
2022-09-28T17:29:16.407Z,7.13
2022-09-28T17:34:21.737Z,7.40
2022-09-28T17:39:27.210Z,9.52
2022-09-28T17:44:32.313Z,14.02
2022-09-28T17:49:38.747Z,10.93
2022-09-28T17:54:44.456Z,14.80
2022-09-28T17:59:50.938Z,8.90
2022-09-28T18:04:56.243Z,8.38
2022-09-28T18:10:01.933Z,8.30
2022-09-28T18:15:07.275Z,7.25
2022-09-28T18:20:13.305Z,7.65
2022-09-28T18:25:18.462Z,9.63
2022-09-28T18:30:23.740Z,7.82
2022-09-28T18:35:28.881Z,12.25
2022-09-28T18:40:34.053Z,9.88
2022-09-28T18:45:39.730Z,11.15
2022-09-28T18:50:46.064Z,9.18
2022-09-28T18:55:51.304Z,12.52
2022-09-28T19:01:13.487Z,8.32
2022-09-28T19:06:21.683Z,8.75
2022-09-28T19:11:27.493Z,13.27
2022-09-28T19:16:36.223Z,20.33
2022-09-28T19:21:43.066Z,9.50
2022-09-28T19:26:48.501Z,10.17
2022-09-28T19:31:54.020Z,7.50
2022-09-28T19:37:03.671Z,5.90
2022-09-28T19:42:09.029Z,5.93
2022-09-28T19:47:14.314Z,7.70
2022-09-28T19:52:19.702Z,5.78
2022-09-28T19:57:25.863Z,10.20
2022-09-28T20:02:31.301Z,5.57
2022-09-28T20:07:36.696Z,9.57
2022-09-28T20:12:42.351Z,5.75
2022-09-28T20:17:47.644Z,7.53
2022-09-28T20:22:52.739Z,6.57
2022-09-28T20:27:58.305Z,8.23
2022-09-28T20:33:03.305Z,7.10
2022-09-28T20:38:09.018Z,7.50
2022-09-28T20:43:15.121Z,6.55
2022-09-28T20:48:20.065Z,8.05
2022-09-28T20:53:25.923Z,5.95
2022-09-28T20:58:31.588Z,6.70
2022-09-28T21:03:36.693Z,7.78
2022-09-28T21:08:41.650Z,6.50
2022-09-28T21:13:46.730Z,5.18
2022-09-28T21:18:51.903Z,5.78
2022-09-28T21:23:57.252Z,7.00
2022-09-28T21:29:03.349Z,6.13
2022-09-28T21:34:08.446Z,5.65
2022-09-28T21:39:13.363Z,5.97
2022-09-28T21:44:18.312Z,6.25
2022-09-28T21:49:23.202Z,6.10
2022-09-28T21:54:28.816Z,5.15
2022-09-28T21:59:33.934Z,5.80
2022-09-28T22:04:39.013Z,5.85
2022-09-28T22:09:43.928Z,5.47
2022-09-28T22:14:48.949Z,9.13
2022-09-28T22:19:54.001Z,7.10
2022-09-28T22:24:58.979Z,11.98
2022-09-28T22:30:03.990Z,10.23
2022-09-28T22:35:09.191Z,10.57
2022-09-28T22:40:14.584Z,9.50
2022-09-28T22:45:19.444Z,11.52
2022-09-28T22:50:24.456Z,9.75
2022-09-28T22:55:29.427Z,11.75
2022-09-28T23:00:34.446Z,9.65
2022-09-28T23:05:39.504Z,11.10
2022-09-28T23:10:45.238Z,10.93
2022-09-28T23:16:00.179Z,10.98
2022-09-28T23:21:06.563Z,11.52
2022-09-28T23:26:21.846Z,9.48
2022-09-28T23:31:28.266Z,9.55
2022-09-28T23:36:33.898Z,10.77
2022-09-28T23:41:39.820Z,11.35
2022-09-28T23:46:45.221Z,11.30
2022-09-28T23:51:50.614Z,13.05
2022-09-28T23:56:56.020Z,14.32
